createdAt,value
2023-04-18T00:01:27.803Z,96471.72
2023-04-18T00:03:56.262Z,96472.94
2023-04-18T00:06:26.246Z,96467.81
2023-04-18T00:08:54.262Z,96465.81
2023-04-18T00:11:22.431Z,96466.78
2023-04-18T00:13:50.408Z,96464.25
2023-04-18T00:16:18.788Z,96463.50
2023-04-18T00:18:46.757Z,96470.81
2023-04-18T00:21:15.077Z,96454.47
2023-04-18T00:23:43.598Z,96463.91
2023-04-18T00:26:12.300Z,96463.91
2023-04-18T00:28:40.730Z,96461.47
2023-04-18T00:31:09.235Z,96460.88
2023-04-18T00:33:37.167Z,96460.34
2023-04-18T00:36:05.981Z,96462.63
2023-04-18T00:38:36.601Z,96457.94
2023-04-18T00:41:04.891Z,96452.38
2023-04-18T00:43:35.300Z,96445.81
2023-04-18T00:46:03.761Z,96459.06
2023-04-18T00:48:31.927Z,96454.81
2023-04-18T00:51:00.926Z,96457.06
2023-04-18T00:53:29.632Z,96456.53
2023-04-18T00:55:58.374Z,96459.56
2023-04-18T00:58:26.853Z,96460.53
2023-04-18T01:00:55.171Z,96448.53
2023-04-18T01:03:23.336Z,96451.16
2023-04-18T01:05:52.028Z,96447.34
2023-04-18T01:08:21.826Z,96450.50
2023-04-18T01:10:50.214Z,96453.59
2023-04-18T01:13:20.439Z,96454.09
2023-04-18T01:15:51.077Z,96453.25
2023-04-18T01:18:19.429Z,96447.72
2023-04-18T01:20:50.207Z,96451.84
2023-04-18T01:23:21.827Z,96448.75
2023-04-18T01:25:51.269Z,96441.88
2023-04-18T01:28:21.819Z,96442.91
2023-04-18T01:30:50.247Z,96447.19
2023-04-18T01:33:18.268Z,96432.97
2023-04-18T01:35:50.286Z,96441.28
2023-04-18T01:38:18.097Z,96449.84
2023-04-18T01:40:46.639Z,96441.28
2023-04-18T01:43:16.162Z,96438.69
2023-04-18T01:45:44.272Z,96438.34
2023-04-18T01:48:12.110Z,96447.50
2023-04-18T01:50:43.424Z,96442.50
2023-04-18T01:53:12.042Z,96441.44
2023-04-18T01:55:40.347Z,96434.28
2023-04-18T01:58:08.314Z,96444.53
2023-04-18T02:00:37.886Z,96431.34
2023-04-18T02:03:06.873Z,96426.41
2023-04-18T02:05:37.783Z,96429.09
2023-04-18T02:08:07.924Z,96439.59
2023-04-18T02:10:36.154Z,96429.91
2023-04-18T02:13:04.488Z,96426.16
2023-04-18T02:15:33.425Z,96431.34
2023-04-18T02:18:01.802Z,96442.34
2023-04-18T02:20:34.152Z,96441.13
2023-04-18T02:23:02.863Z,96440.13
2023-04-18T02:25:31.693Z,96439.56
2023-04-18T02:28:18.103Z,96437.97
2023-04-18T02:30:46.292Z,96442.94
2023-04-18T02:33:14.188Z,96437.69
2023-04-18T02:35:42.510Z,96443.50
2023-04-18T02:38:10.375Z,96429.81
2023-04-18T02:40:38.875Z,96440.41
2023-04-18T02:43:06.822Z,96444.34
2023-04-18T02:45:35.040Z,96433.94
2023-04-18T02:48:03.068Z,96446.47
2023-04-18T02:50:32.542Z,96445.25
2023-04-18T02:53:00.542Z,96436.09
2023-04-18T02:55:39.284Z,96434.53
2023-04-18T02:58:07.478Z,96447.00
2023-04-18T03:01:02.037Z,96444.50
2023-04-18T03:03:32.539Z,96436.91
2023-04-18T03:06:21.090Z,96428.59
2023-04-18T03:08:49.406Z,96433.34
2023-04-18T03:11:18.256Z,96431.88
2023-04-18T03:13:46.351Z,96428.06
2023-04-18T03:16:16.857Z,96431.44
2023-04-18T03:18:45.720Z,96437.31
2023-04-18T03:21:15.097Z,96433.50
2023-04-18T03:23:43.748Z,96436.44
2023-04-18T03:26:14.084Z,96440.06
2023-04-18T03:28:43.666Z,96438.19
2023-04-18T03:31:12.646Z,96436.19
2023-04-18T03:33:44.575Z,96434.13
2023-04-18T03:36:15.884Z,96438.03
2023-04-18T03:38:45.070Z,96435.75
2023-04-18T03:41:13.282Z,96436.63
2023-04-18T03:43:41.129Z,96441.03
2023-04-18T03:46:09.460Z,96441.13
2023-04-18T03:48:38.293Z,96442.16
2023-04-18T03:51:10.806Z,96444.34
2023-04-18T03:53:39.953Z,96442.44
2023-04-18T03:56:08.239Z,96444.84
2023-04-18T03:58:48.752Z,96434.81
2023-04-18T04:01:17.562Z,96449.28
2023-04-18T04:03:45.658Z,96443.91
2023-04-18T04:06:14.284Z,96445.13
2023-04-18T04:08:42.364Z,96447.38
2023-04-18T04:11:10.762Z,96447.38
2023-04-18T04:13:39.395Z,96444.00
2023-04-18T04:16:08.650Z,96442.50
2023-04-18T04:18:37.565Z,96450.66
2023-04-18T04:21:07.072Z,96458.47
2023-04-18T04:23:46.926Z,96445.09
2023-04-18T04:26:27.939Z,96446.13
2023-04-18T04:29:16.615Z,96444.03
2023-04-18T04:31:47.425Z,96444.94
2023-04-18T04:34:20.689Z,96440.66
2023-04-18T04:36:49.373Z,96441.06
2023-04-18T04:39:20.195Z,96452.72
2023-04-18T04:42:12.526Z,96439.28
2023-04-18T04:44:53.791Z,96444.75
2023-04-18T04:47:23.226Z,96451.75
2023-04-18T04:49:51.177Z,96435.00
2023-04-18T04:52:19.333Z,96440.03
2023-04-18T04:54:47.463Z,96445.25
2023-04-18T04:57:19.032Z,96441.94
2023-04-18T04:59:46.870Z,96442.88
2023-04-18T05:02:15.449Z,96446.41
2023-04-18T05:04:43.706Z,96449.16
2023-04-18T05:07:12.123Z,96450.75
2023-04-18T05:09:40.102Z,96443.97
2023-04-18T05:12:08.616Z,96451.09
2023-04-18T05:14:36.505Z,96450.88
2023-04-18T05:17:05.032Z,96440.09
2023-04-18T05:19:33.017Z,96452.22
2023-04-18T05:22:01.511Z,96453.84
2023-04-18T05:24:30.139Z,96450.34
2023-04-18T05:26:58.574Z,96454.16
2023-04-18T05:29:26.748Z,96446.84
2023-04-18T05:31:56.642Z,96448.28
2023-04-18T05:34:24.729Z,96456.72
2023-04-18T05:36:52.963Z,96443.63
2023-04-18T05:39:20.955Z,96451.78
2023-04-18T05:41:49.273Z,96447.50
2023-04-18T05:44:17.945Z,96438.91
2023-04-18T05:46:47.127Z,96440.59
2023-04-18T05:49:15.213Z,96447.06
2023-04-18T05:51:43.331Z,96436.97
2023-04-18T05:54:11.415Z,96443.31
2023-04-18T05:56:41.540Z,96437.53
2023-04-18T05:59:09.412Z,96438.75
2023-04-18T06:01:37.687Z,96432.31
2023-04-18T06:04:06.533Z,96442.53
2023-04-18T06:06:36.018Z,96445.09
2023-04-18T06:09:04.184Z,96447.75
2023-04-18T06:11:35.968Z,96453.22
2023-04-18T06:14:04.212Z,96456.22
2023-04-18T06:16:32.492Z,96461.56
2023-04-18T06:19:01.338Z,96454.22
2023-04-18T06:21:29.854Z,96447.31
2023-04-18T06:23:58.014Z,96447.97
2023-04-18T06:26:26.431Z,96448.41
2023-04-18T06:28:54.614Z,96448.94
2023-04-18T06:31:23.114Z,96443.28
2023-04-18T06:33:51.564Z,96444.06
2023-04-18T06:36:20.240Z,96436.13
2023-04-18T06:38:48.209Z,96439.16
2023-04-18T06:41:16.481Z,96436.59
2023-04-18T06:43:55.709Z,96429.34
2023-04-18T06:46:30.766Z,96442.34
2023-04-18T06:48:59.105Z,96431.22
2023-04-18T06:51:27.738Z,96432.13
2023-04-18T06:53:55.925Z,96432.19
2023-04-18T06:56:24.184Z,96432.59
2023-04-18T06:58:53.234Z,96431.50
2023-04-18T07:01:21.594Z,96440.19
2023-04-18T07:03:49.598Z,96432.69
2023-04-18T07:06:19.018Z,96432.59
2023-04-18T07:08:46.908Z,96433.78
2023-04-18T07:11:15.938Z,96427.03
2023-04-18T07:13:43.865Z,96428.34
2023-04-18T07:16:12.035Z,96429.28
2023-04-18T07:18:39.853Z,96424.66
2023-04-18T07:21:08.281Z,96424.81
2023-04-18T07:23:36.706Z,96412.31
2023-04-18T07:26:06.011Z,96421.97
2023-04-18T07:28:33.993Z,96408.63
2023-04-18T07:31:03.959Z,96417.25
2023-04-18T07:33:34.085Z,96416.00
2023-04-18T07:36:03.352Z,96413.94
2023-04-18T07:38:31.368Z,96410.84
2023-04-18T07:41:01.605Z,96407.91
2023-04-18T07:43:29.663Z,96403.66
2023-04-18T07:45:58.303Z,96403.34
2023-04-18T07:48:26.275Z,96387.44
2023-04-18T07:50:54.667Z,96400.97
2023-04-18T07:53:22.963Z,96396.19
2023-04-18T07:55:51.436Z,96397.31
2023-04-18T07:58:19.549Z,96385.81
2023-04-18T08:00:47.756Z,96390.41
2023-04-18T08:03:16.570Z,96388.72
2023-04-18T08:05:45.042Z,96387.19
2023-04-18T08:08:13.575Z,96379.38
2023-04-18T08:10:41.728Z,96378.78
2023-04-18T08:13:10.096Z,96391.09
2023-04-18T08:15:38.347Z,96382.97
2023-04-18T08:18:06.552Z,96386.38
2023-04-18T08:20:37.445Z,96383.47
2023-04-18T08:23:09.445Z,96382.72
2023-04-18T08:25:40.038Z,96382.91
2023-04-18T08:28:08.657Z,96391.72
2023-04-18T08:30:37.151Z,96381.78
2023-04-18T08:33:05.370Z,96375.00
2023-04-18T08:35:35.540Z,96370.06
2023-04-18T08:38:23.725Z,96367.88
2023-04-18T08:41:10.886Z,96357.09
2023-04-18T08:43:38.778Z,96357.09
2023-04-18T08:46:08.157Z,96366.53
2023-04-18T08:48:36.990Z,96356.28
2023-04-18T08:51:05.657Z,96362.84
2023-04-18T08:53:34.523Z,96355.69
2023-04-18T08:56:03.167Z,96364.78
2023-04-18T08:58:34.117Z,96355.88
2023-04-18T09:01:02.653Z,96354.34
2023-04-18T09:03:41.169Z,96345.16
2023-04-18T09:06:14.633Z,96348.34
2023-04-18T09:08:44.258Z,96343.97
2023-04-18T09:11:32.648Z,96345.97
2023-04-18T09:14:00.749Z,96352.25
2023-04-18T09:16:47.094Z,96348.38
2023-04-18T09:19:19.363Z,96342.13
2023-04-18T09:21:58.203Z,96346.63
2023-04-18T09:24:27.506Z,96338.91
2023-04-18T09:26:58.929Z,96341.56
2023-04-18T09:29:47.450Z,96341.97
2023-04-18T09:32:27.333Z,96336.06
2023-04-18T09:34:58.618Z,96334.06
2023-04-18T09:37:31.048Z,96335.97
2023-04-18T09:39:59.061Z,96334.41
2023-04-18T09:42:36.480Z,96334.25
2023-04-18T09:45:08.746Z,96327.91
2023-04-18T09:47:39.185Z,96329.63
2023-04-18T09:50:10.081Z,96323.44
2023-04-18T09:52:41.146Z,96325.75
2023-04-18T09:55:11.781Z,96321.44
2023-04-18T09:57:42.811Z,96321.13
2023-04-18T10:00:17.686Z,96315.06
2023-04-18T10:02:58.248Z,96312.44
2023-04-18T10:05:34.639Z,96316.00
2023-04-18T10:08:04.080Z,96307.03
2023-04-18T10:10:33.170Z,96307.78
2023-04-18T10:13:03.458Z,96314.00
2023-04-18T10:15:32.598Z,96302.31
2023-04-18T10:18:05.860Z,96314.81
2023-04-18T10:20:35.648Z,96308.13
2023-04-18T10:23:43.389Z,96314.06
2023-04-18T10:26:11.928Z,96301.28
2023-04-18T10:28:54.878Z,96298.47
2023-04-18T10:31:25.107Z,96303.09
2023-04-18T10:34:04.587Z,96288.00
2023-04-18T10:36:33.832Z,96290.16
2023-04-18T10:39:21.814Z,96288.97
2023-04-18T10:41:51.267Z,96286.47
2023-04-18T10:44:23.064Z,96279.31
2023-04-18T10:46:51.477Z,96285.03
2023-04-18T10:49:26.417Z,96283.50
2023-04-18T10:51:58.741Z,96287.66
2023-04-18T10:54:28.692Z,96275.59
2023-04-18T10:57:04.812Z,96281.16
2023-04-18T10:59:34.966Z,96287.94
2023-04-18T11:02:18.242Z,96273.63
2023-04-18T11:04:51.822Z,96253.88
2023-04-18T11:07:20.324Z,96269.41
2023-04-18T11:09:55.520Z,96262.66
2023-04-18T11:12:23.711Z,96263.50
2023-04-18T11:14:53.028Z,96264.19
2023-04-18T11:17:36.093Z,96246.16
2023-04-18T11:20:09.421Z,96248.59
2023-04-18T11:22:55.322Z,96251.28
2023-04-18T11:25:45.109Z,96239.38
2023-04-18T11:28:13.924Z,96235.28
2023-04-18T11:30:42.230Z,96239.94
2023-04-18T11:33:12.339Z,96232.59
2023-04-18T11:35:42.548Z,96233.09
2023-04-18T11:38:13.390Z,96232.97
2023-04-18T11:40:51.324Z,96232.06
2023-04-18T11:43:24.336Z,96221.81
2023-04-18T11:46:00.292Z,96218.75
2023-04-18T11:48:54.614Z,96216.28
2023-04-18T11:51:38.917Z,96212.69
2023-04-18T11:54:06.893Z,96209.72
2023-04-18T11:56:36.667Z,96211.25
2023-04-18T11:59:11.601Z,96208.50
2023-04-18T12:01:39.898Z,96200.47
2023-04-18T12:04:08.969Z,96207.78
2023-04-18T12:06:55.682Z,96199.19
2023-04-18T12:09:25.341Z,96199.66
2023-04-18T12:12:04.600Z,96192.94
2023-04-18T12:14:32.348Z,96199.19
2023-04-18T12:17:03.827Z,96203.50
2023-04-18T12:19:33.112Z,96198.28
2023-04-18T12:22:03.430Z,96193.91
2023-04-18T12:24:32.343Z,96197.84
2023-04-18T12:27:00.842Z,96207.00
2023-04-18T12:29:29.491Z,96192.75
2023-04-18T12:31:57.663Z,96181.84
2023-04-18T12:34:25.558Z,96192.47
2023-04-18T12:36:54.255Z,96197.66
2023-04-18T12:39:22.134Z,96183.53
2023-04-18T12:41:50.258Z,96194.16
2023-04-18T12:44:18.443Z,96187.84
2023-04-18T12:46:46.662Z,96184.22
2023-04-18T12:49:14.489Z,96177.53
2023-04-18T12:51:43.912Z,96178.72
2023-04-18T12:54:11.963Z,96175.53
2023-04-18T12:56:40.251Z,96178.72
2023-04-18T12:59:08.339Z,96186.28
2023-04-18T13:01:36.596Z,96179.19
2023-04-18T13:04:12.508Z,96178.59
2023-04-18T13:06:41.791Z,96183.88
2023-04-18T13:09:10.610Z,96178.13
2023-04-18T13:11:38.945Z,96178.31
2023-04-18T13:14:06.811Z,96175.41
2023-04-18T13:16:35.076Z,96176.22
2023-04-18T13:19:03.111Z,96183.63
2023-04-18T13:21:33.315Z,96183.53
2023-04-18T13:24:01.509Z,96192.03
2023-04-18T13:26:29.757Z,96184.94
2023-04-18T13:28:58.778Z,96186.19
2023-04-18T13:31:27.772Z,96189.34
2023-04-18T13:33:55.801Z,96183.44
2023-04-18T13:36:27.349Z,96180.97
2023-04-18T13:38:55.824Z,96190.47
2023-04-18T13:41:24.498Z,96196.50
2023-04-18T13:43:52.410Z,96206.44
2023-04-18T13:46:20.758Z,96204.00
2023-04-18T13:48:48.635Z,96208.03
2023-04-18T13:51:17.230Z,96198.91
2023-04-18T13:53:45.216Z,96192.69
2023-04-18T13:56:13.357Z,96191.03
2023-04-18T13:58:41.347Z,96195.19
2023-04-18T14:01:09.846Z,96188.19
2023-04-18T14:03:38.911Z,96183.41
2023-04-18T14:06:08.361Z,96185.78
2023-04-18T14:08:36.318Z,96178.66
2023-04-18T14:11:04.455Z,96181.47
2023-04-18T14:13:32.514Z,96183.94
2023-04-18T14:16:01.334Z,96173.41
2023-04-18T14:18:29.309Z,96170.47
2023-04-18T14:20:57.481Z,96164.09
2023-04-18T14:23:26.266Z,96159.94
2023-04-18T14:25:54.610Z,96161.00
2023-04-18T14:28:25.150Z,96151.09
2023-04-18T14:30:58.046Z,96152.28
2023-04-18T14:33:26.474Z,96135.22
2023-04-18T14:35:54.682Z,96130.72
2023-04-18T14:38:22.574Z,96119.56
2023-04-18T14:40:50.797Z,96122.34
2023-04-18T14:43:18.925Z,96118.81
2023-04-18T14:45:47.390Z,96115.09
2023-04-18T14:48:15.250Z,96113.88
2023-04-18T14:50:44.033Z,96119.31
2023-04-18T14:53:12.404Z,96121.00
2023-04-18T14:55:40.998Z,96110.78
2023-04-18T14:58:08.974Z,96119.78
2023-04-18T15:00:37.513Z,96115.41
2023-04-18T15:03:06.266Z,96104.59
2023-04-18T15:05:39.038Z,96110.84
2023-04-18T15:08:07.221Z,96095.53
2023-04-18T15:10:36.149Z,96106.34
2023-04-18T15:13:04.380Z,96101.72
2023-04-18T15:15:35.911Z,96090.97
2023-04-18T15:18:04.809Z,96091.34
2023-04-18T15:20:34.629Z,96083.44
2023-04-18T15:23:03.156Z,96090.72
2023-04-18T15:25:31.613Z,96085.16
2023-04-18T15:27:59.902Z,96091.66
2023-04-18T15:30:28.342Z,96088.09
2023-04-18T15:32:56.388Z,96095.72
2023-04-18T15:35:24.677Z,96104.38
2023-04-18T15:37:54.269Z,96106.69
2023-04-18T15:40:22.674Z,96097.88
2023-04-18T15:42:51.272Z,96096.28
2023-04-18T15:45:19.570Z,96107.44
2023-04-18T15:47:47.783Z,96128.03
2023-04-18T15:50:16.626Z,96124.47
2023-04-18T15:52:44.659Z,96128.50
2023-04-18T15:55:13.720Z,96130.19
2023-04-18T15:57:42.070Z,96136.19
2023-04-18T16:00:21.166Z,96132.31
2023-04-18T16:02:49.695Z,96125.06
2023-04-18T16:05:17.987Z,96134.03
2023-04-18T16:07:46.408Z,96143.34
2023-04-18T16:10:15.520Z,96141.50
2023-04-18T16:12:43.637Z,96144.72
2023-04-18T16:15:12.424Z,96142.72
2023-04-18T16:17:40.401Z,96142.72
2023-04-18T16:20:09.369Z,96138.69
2023-04-18T16:22:37.837Z,96143.59
2023-04-18T16:25:06.469Z,96139.44
2023-04-18T16:27:34.479Z,96146.72
2023-04-18T16:30:03.859Z,96149.19
2023-04-18T16:32:34.862Z,96152.28
2023-04-18T16:35:06.599Z,96152.59
2023-04-18T16:37:34.681Z,96153.66
2023-04-18T16:40:05.994Z,96158.44
2023-04-18T16:42:34.434Z,96163.41
2023-04-18T16:45:03.625Z,96164.19
2023-04-18T16:47:36.991Z,96168.06
2023-04-18T16:50:06.216Z,96160.63
2023-04-18T16:52:34.658Z,96170.06
2023-04-18T16:55:02.927Z,96168.66
2023-04-18T16:57:31.309Z,96181.66
2023-04-18T17:00:02.430Z,96179.81
2023-04-18T17:02:35.411Z,96186.31
2023-04-18T17:05:03.944Z,96186.34
2023-04-18T17:07:31.869Z,96188.81
2023-04-18T17:10:00.140Z,96187.41
2023-04-18T17:12:28.109Z,96185.69
2023-04-18T17:14:56.416Z,96201.66
2023-04-18T17:17:24.291Z,96181.41
2023-04-18T17:19:52.524Z,96189.13
2023-04-18T17:22:20.761Z,96199.94
2023-04-18T17:24:49.398Z,96198.72
2023-04-18T17:27:18.190Z,96198.25
2023-04-18T17:29:46.605Z,96192.06
2023-04-18T17:32:14.902Z,96207.41
2023-04-18T17:34:43.377Z,96211.44
2023-04-18T17:37:11.851Z,96214.53
2023-04-18T17:39:40.889Z,96209.88
2023-04-18T17:42:09.746Z,96203.38
2023-04-18T17:44:39.966Z,96208.81
2023-04-18T17:47:08.294Z,96207.25
2023-04-18T17:49:36.635Z,96207.09
2023-04-18T17:52:05.223Z,96209.28
2023-04-18T17:54:33.582Z,96204.81
2023-04-18T17:57:02.723Z,96200.63
2023-04-18T17:59:30.987Z,96209.63
2023-04-18T18:01:59.889Z,96203.16
2023-04-18T18:04:28.309Z,96209.69
2023-04-18T18:06:56.991Z,96211.50
2023-04-18T18:09:25.272Z,96214.16
2023-04-18T18:11:55.375Z,96216.50
2023-04-18T18:14:24.528Z,96221.13
2023-04-18T18:16:52.637Z,96213.41
2023-04-18T18:19:21.786Z,96208.75
2023-04-18T18:21:49.596Z,96220.22
2023-04-18T18:24:18.991Z,96211.84
2023-04-18T18:26:46.915Z,96218.81
2023-04-18T18:29:15.381Z,96221.47
2023-04-18T18:31:43.451Z,96217.44
2023-04-18T18:34:12.271Z,96215.88
2023-04-18T18:36:40.496Z,96227.34
2023-04-18T18:39:08.851Z,96222.84
2023-04-18T18:41:36.840Z,96227.81
2023-04-18T18:44:05.343Z,96217.72
2023-04-18T18:46:33.398Z,96226.25
2023-04-18T18:49:01.754Z,96212.78
2023-04-18T18:51:29.737Z,96219.75
2023-04-18T18:53:58.256Z,96209.84
2023-04-18T18:56:26.511Z,96205.34
2023-04-18T18:58:57.886Z,96206.91
2023-04-18T19:01:25.975Z,96200.66
2023-04-18T19:03:54.564Z,96207.97
2023-04-18T19:06:22.437Z,96194.00
2023-04-18T19:08:50.698Z,96177.00
2023-04-18T19:11:19.519Z,96170.19
2023-04-18T19:13:47.759Z,96165.66
2023-04-18T19:16:15.732Z,96165.31
2023-04-18T19:18:47.269Z,96163.31
2023-04-18T19:21:16.263Z,96147.38
2023-04-18T19:23:44.516Z,96154.19
2023-04-18T19:26:12.570Z,96148.94
2023-04-18T19:28:41.686Z,96153.88
2023-04-18T19:31:09.857Z,96160.22
2023-04-18T19:33:38.493Z,96171.69
2023-04-18T19:36:06.715Z,96191.94
2023-04-18T19:38:35.395Z,96176.16
2023-04-18T19:41:03.569Z,96170.09
2023-04-18T19:43:31.871Z,96165.91
2023-04-18T19:46:00.170Z,96176.13
2023-04-18T19:48:28.395Z,96161.94
2023-04-18T19:50:57.670Z,96155.88
2023-04-18T19:53:26.149Z,96153.72
2023-04-18T19:55:55.266Z,96148.00
2023-04-18T19:58:45.364Z,96141.19
2023-04-18T20:01:15.035Z,96145.97
2023-04-18T20:03:45.928Z,96141.34
2023-04-18T20:06:14.186Z,96131.75
2023-04-18T20:08:42.526Z,96132.38
2023-04-18T20:11:11.847Z,96137.47
2023-04-18T20:13:40.584Z,96129.72
2023-04-18T20:16:09.530Z,96135.78
2023-04-18T20:18:39.592Z,96140.25
2023-04-18T20:21:09.502Z,96147.41
2023-04-18T20:23:38.378Z,96138.06
2023-04-18T20:26:07.139Z,96138.25
2023-04-18T20:28:36.531Z,96143.66
2023-04-18T20:31:04.989Z,96145.50
2023-04-18T20:33:33.642Z,96143.03
2023-04-18T20:36:01.497Z,96146.31
2023-04-18T20:38:29.961Z,96154.81
2023-04-18T20:41:01.040Z,96143.19
2023-04-18T20:43:29.622Z,96145.53
2023-04-18T20:45:58.162Z,96141.19
2023-04-18T20:48:26.571Z,96132.97
2023-04-18T20:50:54.405Z,96138.72
2023-04-18T20:53:25.427Z,96143.38
2023-04-18T20:55:53.508Z,96135.59
2023-04-18T20:58:21.788Z,96138.88
2023-04-18T21:00:49.847Z,96136.09
2023-04-18T21:03:18.369Z,96141.50
2023-04-18T21:05:46.417Z,96140.09
2023-04-18T21:08:14.655Z,96135.91
2023-04-18T21:10:42.519Z,96132.84
2023-04-18T21:13:12.769Z,96136.84
2023-04-18T21:15:42.914Z,96135.75
2023-04-18T21:18:11.503Z,96132.97
2023-04-18T21:20:39.452Z,96123.22
2023-04-18T21:23:07.765Z,96116.25
2023-04-18T21:25:35.571Z,96111.13
2023-04-18T21:28:04.017Z,96113.31
2023-04-18T21:30:31.881Z,96100.16
2023-04-18T21:33:00.305Z,96108.69
2023-04-18T21:35:30.089Z,96096.44
2023-04-18T21:37:58.842Z,96108.34
2023-04-18T21:40:27.258Z,96108.66
2023-04-18T21:42:55.789Z,96107.25
2023-04-18T21:45:23.840Z,96101.34
2023-04-18T21:47:53.850Z,96101.22
2023-04-18T21:50:22.915Z,96104.41
2023-04-18T21:52:51.650Z,96101.22
2023-04-18T21:55:19.650Z,96104.91
2023-04-18T21:57:48.864Z,96096.69
2023-04-18T22:00:17.280Z,96091.47
2023-04-18T22:02:45.816Z,96092.84
2023-04-18T22:05:14.349Z,96095.00
2023-04-18T22:07:56.951Z,96091.44
2023-04-18T22:10:25.848Z,96092.50
2023-04-18T22:12:56.264Z,96099.59
2023-04-18T22:15:24.813Z,96086.75
2023-04-18T22:17:54.565Z,96082.28
2023-04-18T22:20:25.919Z,96091.69
2023-04-18T22:22:55.659Z,96084.09
2023-04-18T22:25:23.718Z,96068.63
2023-04-18T22:27:51.927Z,96071.72
2023-04-18T22:30:23.079Z,96069.38
2023-04-18T22:32:52.145Z,96069.22
2023-04-18T22:35:20.244Z,96062.88
2023-04-18T22:37:48.453Z,96046.38
2023-04-18T22:40:16.870Z,96036.13
2023-04-18T22:42:45.445Z,96041.16
2023-04-18T22:45:13.796Z,96043.50
2023-04-18T22:47:44.222Z,96041.06
2023-04-18T22:50:12.306Z,96053.72
2023-04-18T22:52:41.451Z,96040.28
2023-04-18T22:55:09.985Z,96045.19
2023-04-18T22:57:38.886Z,96041.16
2023-04-18T23:00:07.427Z,96032.25
2023-04-18T23:02:36.217Z,96037.81
2023-04-18T23:05:06.196Z,96035.53
2023-04-18T23:07:37.345Z,96027.56
2023-04-18T23:10:07.028Z,96029.00
2023-04-18T23:12:35.299Z,96028.66
2023-04-18T23:15:04.600Z,96030.72
2023-04-18T23:17:37.987Z,96029.59
2023-04-18T23:20:10.243Z,96022.16
2023-04-18T23:22:39.270Z,96030.03
2023-04-18T23:25:07.364Z,96027.94
2023-04-18T23:27:35.628Z,96033.69
2023-04-18T23:30:03.515Z,96022.38
2023-04-18T23:32:33.958Z,96015.16
2023-04-18T23:35:04.477Z,96012.66
2023-04-18T23:37:34.616Z,96017.59
2023-04-18T23:40:05.250Z,96012.31
2023-04-18T23:42:37.238Z,96009.06
2023-04-18T23:45:06.248Z,96008.94
2023-04-18T23:47:35.698Z,96002.59
2023-04-18T23:50:03.729Z,96000.13
2023-04-18T23:52:34.406Z,96003.84
2023-04-18T23:55:02.649Z,95992.09
2023-04-18T23:57:34.620Z,96000.13
